sensor_id;sensor_type;location;lat;lon;timestamp;temperature;humidity
70051;SHT30;57391;51.306;22.680;2023-07-31T00:01:04;19.24;74.02
70051;SHT30;57391;51.306;22.680;2023-07-31T00:03:31;19.23;74.10
70051;SHT30;57391;51.306;22.680;2023-07-31T00:05:58;19.21;74.10
70051;SHT30;57391;51.306;22.680;2023-07-31T00:08:24;19.19;74.03
70051;SHT30;57391;51.306;22.680;2023-07-31T00:10:52;19.18;74.10
70051;SHT30;57391;51.306;22.680;2023-07-31T00:13:19;19.18;74.10
70051;SHT30;57391;51.306;22.680;2023-07-31T00:15:46;19.18;74.10
70051;SHT30;57391;51.306;22.680;2023-07-31T00:18:13;19.17;74.08
70051;SHT30;57391;51.306;22.680;2023-07-31T00:20:40;19.17;74.07
70051;SHT30;57391;51.306;22.680;2023-07-31T00:23:07;19.16;74.04
70051;SHT30;57391;51.306;22.680;2023-07-31T00:25:34;19.13;74.00
70051;SHT30;57391;51.306;22.680;2023-07-31T00:28:00;19.11;73.92
70051;SHT30;57391;51.306;22.680;2023-07-31T00:30:27;19.11;74.04
70051;SHT30;57391;51.306;22.680;2023-07-31T00:32:54;19.10;74.24
70051;SHT30;57391;51.306;22.680;2023-07-31T00:35:21;19.09;74.29
70051;SHT30;57391;51.306;22.680;2023-07-31T00:37:48;19.10;74.33
70051;SHT30;57391;51.306;22.680;2023-07-31T00:40:15;19.11;74.38
70051;SHT30;57391;51.306;22.680;2023-07-31T00:42:42;19.10;74.40
70051;SHT30;57391;51.306;22.680;2023-07-31T00:45:09;19.11;74.45
70051;SHT30;57391;51.306;22.680;2023-07-31T00:47:36;19.12;74.51
70051;SHT30;57391;51.306;22.680;2023-07-31T00:50:03;19.12;74.62
70051;SHT30;57391;51.306;22.680;2023-07-31T00:52:32;19.10;74.68
70051;SHT30;57391;51.306;22.680;2023-07-31T00:54:59;19.09;74.77
70051;SHT30;57391;51.306;22.680;2023-07-31T00:57:26;19.08;74.81
70051;SHT30;57391;51.306;22.680;2023-07-31T00:59:53;19.09;74.88
70051;SHT30;57391;51.306;22.680;2023-07-31T01:02:20;19.08;74.90
70051;SHT30;57391;51.306;22.680;2023-07-31T01:04:47;19.07;74.91
70051;SHT30;57391;51.306;22.680;2023-07-31T01:07:18;19.06;74.90
70051;SHT30;57391;51.306;22.680;2023-07-31T01:10:02;19.06;74.94
70051;SHT30;57391;51.306;22.680;2023-07-31T01:12:38;19.08;75.03
70051;SHT30;57391;51.306;22.680;2023-07-31T01:15:06;19.09;75.01
70051;SHT30;57391;51.306;22.680;2023-07-31T01:17:37;19.11;74.96
70051;SHT30;57391;51.306;22.680;2023-07-31T01:20:06;19.11;75.00
70051;SHT30;57391;51.306;22.680;2023-07-31T01:28:20;19.10;75.23
70051;SHT30;57391;51.306;22.680;2023-07-31T01:31:20;19.11;75.19
70051;SHT30;57391;51.306;22.680;2023-07-31T01:33:54;19.12;75.13
70051;SHT30;57391;51.306;22.680;2023-07-31T01:36:27;19.14;75.08
70051;SHT30;57391;51.306;22.680;2023-07-31T01:38:59;19.14;75.08
70051;SHT30;57391;51.306;22.680;2023-07-31T01:41:27;19.12;75.22
70051;SHT30;57391;51.306;22.680;2023-07-31T01:43:54;19.09;75.30
70051;SHT30;57391;51.306;22.680;2023-07-31T01:46:21;19.08;75.34
70051;SHT30;57391;51.306;22.680;2023-07-31T01:48:48;19.05;75.47
70051;SHT30;57391;51.306;22.680;2023-07-31T01:51:15;19.03;75.50
70051;SHT30;57391;51.306;22.680;2023-07-31T01:53:42;19.01;75.64
70051;SHT30;57391;51.306;22.680;2023-07-31T01:56:09;18.99;75.71
70051;SHT30;57391;51.306;22.680;2023-07-31T01:58:36;18.98;75.74
70051;SHT30;57391;51.306;22.680;2023-07-31T02:01:03;18.97;75.73
70051;SHT30;57391;51.306;22.680;2023-07-31T02:03:29;18.96;75.71
70051;SHT30;57391;51.306;22.680;2023-07-31T02:05:56;18.97;75.71
70051;SHT30;57391;51.306;22.680;2023-07-31T02:08:25;18.96;75.72
70051;SHT30;57391;51.306;22.680;2023-07-31T02:10:52;18.96;75.72
70051;SHT30;57391;51.306;22.680;2023-07-31T02:13:18;18.97;75.73
70051;SHT30;57391;51.306;22.680;2023-07-31T02:15:45;18.96;75.78
70051;SHT30;57391;51.306;22.680;2023-07-31T02:18:12;18.96;75.69
70051;SHT30;57391;51.306;22.680;2023-07-31T02:20:39;18.98;75.72
70051;SHT30;57391;51.306;22.680;2023-07-31T02:23:06;19.00;75.71
70051;SHT30;57391;51.306;22.680;2023-07-31T02:25:33;18.99;75.70
70051;SHT30;57391;51.306;22.680;2023-07-31T02:27:59;19.00;75.62
70051;SHT30;57391;51.306;22.680;2023-07-31T02:30:26;19.02;75.71
70051;SHT30;57391;51.306;22.680;2023-07-31T02:32:53;19.03;75.67
70051;SHT30;57391;51.306;22.680;2023-07-31T02:35:20;19.03;75.60
70051;SHT30;57391;51.306;22.680;2023-07-31T02:37:47;19.04;75.50
70051;SHT30;57391;51.306;22.680;2023-07-31T02:40:14;19.06;75.54
70051;SHT30;57391;51.306;22.680;2023-07-31T02:42:41;19.04;75.61
70051;SHT30;57391;51.306;22.680;2023-07-31T02:45:08;19.02;75.60
70051;SHT30;57391;51.306;22.680;2023-07-31T02:47:35;19.00;75.62
70051;SHT30;57391;51.306;22.680;2023-07-31T02:50:05;18.96;75.61
70051;SHT30;57391;51.306;22.680;2023-07-31T02:52:33;18.94;75.61
70051;SHT30;57391;51.306;22.680;2023-07-31T02:54:59;18.93;75.60
70051;SHT30;57391;51.306;22.680;2023-07-31T02:57:26;18.94;75.53
70051;SHT30;57391;51.306;22.680;2023-07-31T02:59:53;18.94;75.54
70051;SHT30;57391;51.306;22.680;2023-07-31T03:02:20;18.94;75.59
70051;SHT30;57391;51.306;22.680;2023-07-31T03:04:46;18.94;75.74
70051;SHT30;57391;51.306;22.680;2023-07-31T03:07:14;18.96;75.62
70051;SHT30;57391;51.306;22.680;2023-07-31T03:09:41;18.98;75.77
70051;SHT30;57391;51.306;22.680;2023-07-31T03:12:08;18.99;75.69
70051;SHT30;57391;51.306;22.680;2023-07-31T03:14:36;19.01;75.58
70051;SHT30;57391;51.306;22.680;2023-07-31T03:17:03;19.02;75.57
70051;SHT30;57391;51.306;22.680;2023-07-31T03:19:31;19.01;75.55
70051;SHT30;57391;51.306;22.680;2023-07-31T03:21:59;18.99;75.49
70051;SHT30;57391;51.306;22.680;2023-07-31T03:24:26;18.98;75.57
70051;SHT30;57391;51.306;22.680;2023-07-31T03:26:54;18.97;75.60
70051;SHT30;57391;51.306;22.680;2023-07-31T03:29:22;18.96;75.66
70051;SHT30;57391;51.306;22.680;2023-07-31T03:31:49;18.96;75.82
70051;SHT30;57391;51.306;22.680;2023-07-31T03:34:16;18.97;75.63
70051;SHT30;57391;51.306;22.680;2023-07-31T03:36:43;18.98;75.63
70051;SHT30;57391;51.306;22.680;2023-07-31T03:39:11;19.00;75.70
70051;SHT30;57391;51.306;22.680;2023-07-31T03:41:37;19.04;75.69
70051;SHT30;57391;51.306;22.680;2023-07-31T03:44:04;19.05;75.70
70051;SHT30;57391;51.306;22.680;2023-07-31T03:46:31;19.06;75.66
70051;SHT30;57391;51.306;22.680;2023-07-31T03:48:58;19.07;75.75
70051;SHT30;57391;51.306;22.680;2023-07-31T03:51:25;19.07;75.87
70051;SHT30;57391;51.306;22.680;2023-07-31T03:53:52;19.08;75.80
70051;SHT30;57391;51.306;22.680;2023-07-31T03:56:19;19.07;75.81
70051;SHT30;57391;51.306;22.680;2023-07-31T03:58:45;19.06;75.93
70051;SHT30;57391;51.306;22.680;2023-07-31T04:01:12;19.06;76.13
70051;SHT30;57391;51.306;22.680;2023-07-31T04:03:39;19.06;76.26
70051;SHT30;57391;51.306;22.680;2023-07-31T04:06:06;19.05;76.31
70051;SHT30;57391;51.306;22.680;2023-07-31T04:08:34;19.08;76.46
70051;SHT30;57391;51.306;22.680;2023-07-31T04:11:00;19.09;76.53
70051;SHT30;57391;51.306;22.680;2023-07-31T04:13:29;19.11;76.55
70051;SHT30;57391;51.306;22.680;2023-07-31T04:15:56;19.13;76.68
70051;SHT30;57391;51.306;22.680;2023-07-31T04:18:24;19.14;76.66
70051;SHT30;57391;51.306;22.680;2023-07-31T04:20:52;19.17;76.69
70051;SHT30;57391;51.306;22.680;2023-07-31T04:23:19;19.20;76.70
70051;SHT30;57391;51.306;22.680;2023-07-31T04:25:45;19.22;76.70
70051;SHT30;57391;51.306;22.680;2023-07-31T04:28:12;19.24;76.52
70051;SHT30;57391;51.306;22.680;2023-07-31T04:30:39;19.26;76.43
70051;SHT30;57391;51.306;22.680;2023-07-31T04:33:06;19.25;76.62
70051;SHT30;57391;51.306;22.680;2023-07-31T04:35:33;19.26;76.46
70051;SHT30;57391;51.306;22.680;2023-07-31T04:37:59;19.27;76.43
70051;SHT30;57391;51.306;22.680;2023-07-31T04:43:36;19.33;76.24
70051;SHT30;57391;51.306;22.680;2023-07-31T04:46:08;19.37;76.12
70051;SHT30;57391;51.306;22.680;2023-07-31T04:48:35;19.41;76.04
70051;SHT30;57391;51.306;22.680;2023-07-31T04:51:02;19.45;75.89
70051;SHT30;57391;51.306;22.680;2023-07-31T04:53:29;19.50;75.44
70051;SHT30;57391;51.306;22.680;2023-07-31T04:55:59;19.53;75.03
70051;SHT30;57391;51.306;22.680;2023-07-31T04:58:26;19.58;75.14
70051;SHT30;57391;51.306;22.680;2023-07-31T05:00:58;19.61;75.17
70051;SHT30;57391;51.306;22.680;2023-07-31T05:03:54;19.66;75.22
70051;SHT30;57391;51.306;22.680;2023-07-31T05:06:24;19.70;75.09
70051;SHT30;57391;51.306;22.680;2023-07-31T05:08:58;19.76;74.96
70051;SHT30;57391;51.306;22.680;2023-07-31T05:21:23;20.11;74.26
70051;SHT30;57391;51.306;22.680;2023-07-31T05:23:55;20.19;74.07
70051;SHT30;57391;51.306;22.680;2023-07-31T05:26:25;20.26;73.80
70051;SHT30;57391;51.306;22.680;2023-07-31T05:28:56;20.32;73.28
70051;SHT30;57391;51.306;22.680;2023-07-31T05:31:28;20.34;73.16
70051;SHT30;57391;51.306;22.680;2023-07-31T05:38:53;20.47;72.74
70051;SHT30;57391;51.306;22.680;2023-07-31T05:41:23;20.53;72.76
70051;SHT30;57391;51.306;22.680;2023-07-31T05:43:55;20.61;72.66
70051;SHT30;57391;51.306;22.680;2023-07-31T05:46:26;20.66;72.17
70051;SHT30;57391;51.306;22.680;2023-07-31T05:48:56;20.67;72.14
70051;SHT30;57391;51.306;22.680;2023-07-31T05:51:23;20.71;72.16
70051;SHT30;57391;51.306;22.680;2023-07-31T05:53:50;20.77;72.28
70051;SHT30;57391;51.306;22.680;2023-07-31T05:56:17;20.83;72.31
70051;SHT30;57391;51.306;22.680;2023-07-31T05:58:47;20.89;71.87
70051;SHT30;57391;51.306;22.680;2023-07-31T06:01:18;20.95;71.59
70051;SHT30;57391;51.306;22.680;2023-07-31T06:03:47;21.01;71.12
70051;SHT30;57391;51.306;22.680;2023-07-31T06:06:17;21.07;70.77
70051;SHT30;57391;51.306;22.680;2023-07-31T06:08:45;21.11;70.57
70051;SHT30;57391;51.306;22.680;2023-07-31T06:11:12;21.16;70.68
70051;SHT30;57391;51.306;22.680;2023-07-31T06:13:39;21.25;70.53
70051;SHT30;57391;51.306;22.680;2023-07-31T06:16:06;21.32;70.30
70051;SHT30;57391;51.306;22.680;2023-07-31T06:18:32;21.38;70.06
70051;SHT30;57391;51.306;22.680;2023-07-31T06:20:59;21.44;69.73
70051;SHT30;57391;51.306;22.680;2023-07-31T06:23:27;21.51;69.77
70051;SHT30;57391;51.306;22.680;2023-07-31T06:25:53;21.59;69.57
70051;SHT30;57391;51.306;22.680;2023-07-31T06:28:20;21.67;69.37
70051;SHT30;57391;51.306;22.680;2023-07-31T06:30:47;21.74;69.19
70051;SHT30;57391;51.306;22.680;2023-07-31T06:33:18;21.83;68.76
70051;SHT30;57391;51.306;22.680;2023-07-31T06:35:49;21.90;68.48
70051;SHT30;57391;51.306;22.680;2023-07-31T06:38:24;21.98;68.08
70051;SHT30;57391;51.306;22.680;2023-07-31T06:47:19;22.56;67.72
70051;SHT30;57391;51.306;22.680;2023-07-31T06:49:46;22.70;67.11
70051;SHT30;57391;51.306;22.680;2023-07-31T06:52:13;22.82;66.29
70051;SHT30;57391;51.306;22.680;2023-07-31T06:54:39;22.98;66.13
70051;SHT30;57391;51.306;22.680;2023-07-31T06:57:06;23.18;66.00
70051;SHT30;57391;51.306;22.680;2023-07-31T06:59:34;23.33;65.17
70051;SHT30;57391;51.306;22.680;2023-07-31T07:02:01;23.59;64.69
70051;SHT30;57391;51.306;22.680;2023-07-31T07:04:27;23.83;63.84
70051;SHT30;57391;51.306;22.680;2023-07-31T07:06:54;24.10;63.06
70051;SHT30;57391;51.306;22.680;2023-07-31T07:09:21;24.65;62.27
70051;SHT30;57391;51.306;22.680;2023-07-31T07:11:48;25.26;60.91
70051;SHT30;57391;51.306;22.680;2023-07-31T07:14:15;25.84;59.49
70051;SHT30;57391;51.306;22.680;2023-07-31T07:16:42;26.41;57.84
70051;SHT30;57391;51.306;22.680;2023-07-31T07:19:09;26.90;57.08
70051;SHT30;57391;51.306;22.680;2023-07-31T07:21:36;27.25;55.48
70051;SHT30;57391;51.306;22.680;2023-07-31T07:24:03;27.63;54.54
70051;SHT30;57391;51.306;22.680;2023-07-31T07:26:30;27.87;54.11
70051;SHT30;57391;51.306;22.680;2023-07-31T07:28:56;27.86;52.60
70051;SHT30;57391;51.306;22.680;2023-07-31T07:31:24;27.74;51.87
70051;SHT30;57391;51.306;22.680;2023-07-31T07:33:51;27.74;52.06
70051;SHT30;57391;51.306;22.680;2023-07-31T07:36:18;28.01;51.25
70051;SHT30;57391;51.306;22.680;2023-07-31T07:38:45;28.21;50.10
70051;SHT30;57391;51.306;22.680;2023-07-31T07:41:11;28.42;49.98
70051;SHT30;57391;51.306;22.680;2023-07-31T07:43:38;28.59;50.02
70051;SHT30;57391;51.306;22.680;2023-07-31T07:46:05;28.61;49.59
70051;SHT30;57391;51.306;22.680;2023-07-31T07:48:32;28.58;49.48
70051;SHT30;57391;51.306;22.680;2023-07-31T07:50:59;28.53;49.68
70051;SHT30;57391;51.306;22.680;2023-07-31T07:53:26;28.46;49.68
70051;SHT30;57391;51.306;22.680;2023-07-31T07:55:53;28.38;49.92
70051;SHT30;57391;51.306;22.680;2023-07-31T07:58:20;28.42;49.91
70051;SHT30;57391;51.306;22.680;2023-07-31T08:00:50;28.57;48.53
70051;SHT30;57391;51.306;22.680;2023-07-31T08:03:18;28.70;48.03
70051;SHT30;57391;51.306;22.680;2023-07-31T08:05:45;28.90;48.23
70051;SHT30;57391;51.306;22.680;2023-07-31T08:08:14;29.12;47.99
70051;SHT30;57391;51.306;22.680;2023-07-31T08:10:45;29.36;48.56
70051;SHT30;57391;51.306;22.680;2023-07-31T08:13:12;29.58;47.08
70051;SHT30;57391;51.306;22.680;2023-07-31T08:15:41;29.66;46.13
70051;SHT30;57391;51.306;22.680;2023-07-31T08:18:09;29.76;46.02
70051;SHT30;57391;51.306;22.680;2023-07-31T08:20:37;29.81;45.30
70051;SHT30;57391;51.306;22.680;2023-07-31T08:23:04;29.80;44.77
70051;SHT30;57391;51.306;22.680;2023-07-31T08:25:34;29.84;45.38
70051;SHT30;57391;51.306;22.680;2023-07-31T08:28:05;29.97;44.69
70051;SHT30;57391;51.306;22.680;2023-07-31T08:30:33;29.91;44.29
70051;SHT30;57391;51.306;22.680;2023-07-31T08:33:00;29.97;44.90
70051;SHT30;57391;51.306;22.680;2023-07-31T08:35:27;29.95;43.92
70051;SHT30;57391;51.306;22.680;2023-07-31T08:37:56;29.84;43.70
70051;SHT30;57391;51.306;22.680;2023-07-31T08:40:23;29.84;43.77
70051;SHT30;57391;51.306;22.680;2023-07-31T08:42:53;29.89;43.81
70051;SHT30;57391;51.306;22.680;2023-07-31T08:45:23;29.85;43.76
70051;SHT30;57391;51.306;22.680;2023-07-31T08:47:51;29.75;43.99
70051;SHT30;57391;51.306;22.680;2023-07-31T08:50:19;29.75;43.45
70051;SHT30;57391;51.306;22.680;2023-07-31T08:52:48;29.73;43.14
70051;SHT30;57391;51.306;22.680;2023-07-31T08:55:17;29.74;43.65
70051;SHT30;57391;51.306;22.680;2023-07-31T08:57:51;29.68;44.23
70051;SHT30;57391;51.306;22.680;2023-07-31T09:00:21;29.61;43.53
70051;SHT30;57391;51.306;22.680;2023-07-31T09:02:54;29.54;43.50
70051;SHT30;57391;51.306;22.680;2023-07-31T09:05:30;29.50;43.75
70051;SHT30;57391;51.306;22.680;2023-07-31T09:07:58;29.49;43.23
70051;SHT30;57391;51.306;22.680;2023-07-31T09:10:28;29.45;44.58
70051;SHT30;57391;51.306;22.680;2023-07-31T09:12:55;29.43;44.78
70051;SHT30;57391;51.306;22.680;2023-07-31T09:15:24;29.44;45.09
70051;SHT30;57391;51.306;22.680;2023-07-31T09:18:10;29.51;45.94
70051;SHT30;57391;51.306;22.680;2023-07-31T09:20:38;29.56;45.97
70051;SHT30;57391;51.306;22.680;2023-07-31T09:23:09;29.53;44.65
70051;SHT30;57391;51.306;22.680;2023-07-31T09:25:40;29.51;45.53
70051;SHT30;57391;51.306;22.680;2023-07-31T09:28:11;29.59;44.32
70051;SHT30;57391;51.306;22.680;2023-07-31T09:30:46;29.67;44.57
70051;SHT30;57391;51.306;22.680;2023-07-31T09:44:54;29.50;44.81
70051;SHT30;57391;51.306;22.680;2023-07-31T09:47:32;29.25;45.10
70051;SHT30;57391;51.306;22.680;2023-07-31T09:49:59;28.95;44.93
70051;SHT30;57391;51.306;22.680;2023-07-31T09:52:26;28.63;44.99
70051;SHT30;57391;51.306;22.680;2023-07-31T09:54:53;28.31;45.17
70051;SHT30;57391;51.306;22.680;2023-07-31T09:57:49;27.99;45.72
70051;SHT30;57391;51.306;22.680;2023-07-31T10:00:17;27.79;46.73
70051;SHT30;57391;51.306;22.680;2023-07-31T10:08:18;27.30;48.05
70051;SHT30;57391;51.306;22.680;2023-07-31T10:11:28;27.33;48.60
70051;SHT30;57391;51.306;22.680;2023-07-31T10:14:18;27.49;48.17
70051;SHT30;57391;51.306;22.680;2023-07-31T10:17:52;27.62;47.10
70051;SHT30;57391;51.306;22.680;2023-07-31T10:20:29;27.72;45.96
70051;SHT30;57391;51.306;22.680;2023-07-31T10:24:04;27.76;45.87
70051;SHT30;57391;51.306;22.680;2023-07-31T10:26:35;27.84;45.97
70051;SHT30;57391;51.306;22.680;2023-07-31T10:29:05;27.85;46.15
70051;SHT30;57391;51.306;22.680;2023-07-31T10:31:53;27.76;46.86
70051;SHT30;57391;51.306;22.680;2023-07-31T10:34:25;27.75;46.29
70051;SHT30;57391;51.306;22.680;2023-07-31T10:40:03;27.84;46.89
70051;SHT30;57391;51.306;22.680;2023-07-31T10:42:50;27.82;45.35
70051;SHT30;57391;51.306;22.680;2023-07-31T10:45:38;27.78;45.78
70051;SHT30;57391;51.306;22.680;2023-07-31T10:50:47;27.84;46.39
70051;SHT30;57391;51.306;22.680;2023-07-31T10:53:26;27.90;46.56
70051;SHT30;57391;51.306;22.680;2023-07-31T10:55:58;27.96;46.45
70051;SHT30;57391;51.306;22.680;2023-07-31T10:58:31;28.04;46.77
70051;SHT30;57391;51.306;22.680;2023-07-31T11:00:59;28.06;46.20
70051;SHT30;57391;51.306;22.680;2023-07-31T11:06:09;28.10;46.51
70051;SHT30;57391;51.306;22.680;2023-07-31T11:08:41;28.12;45.84
70051;SHT30;57391;51.306;22.680;2023-07-31T11:11:10;28.17;46.47
70051;SHT30;57391;51.306;22.680;2023-07-31T11:13:47;28.30;45.97
70051;SHT30;57391;51.306;22.680;2023-07-31T11:16:17;28.35;45.45
70051;SHT30;57391;51.306;22.680;2023-07-31T11:18:47;28.36;45.77
70051;SHT30;57391;51.306;22.680;2023-07-31T11:21:16;28.40;45.66
70051;SHT30;57391;51.306;22.680;2023-07-31T11:23:47;28.37;45.69
70051;SHT30;57391;51.306;22.680;2023-07-31T11:26:16;28.28;45.39
70051;SHT30;57391;51.306;22.680;2023-07-31T11:28:46;28.20;45.63
70051;SHT30;57391;51.306;22.680;2023-07-31T11:31:14;28.23;45.01
70051;SHT30;57391;51.306;22.680;2023-07-31T11:33:42;28.23;44.39
70051;SHT30;57391;51.306;22.680;2023-07-31T11:36:19;28.25;44.75
70051;SHT30;57391;51.306;22.680;2023-07-31T11:38:47;28.26;45.51
70051;SHT30;57391;51.306;22.680;2023-07-31T11:41:14;28.32;45.49
70051;SHT30;57391;51.306;22.680;2023-07-31T11:43:43;28.36;45.52
70051;SHT30;57391;51.306;22.680;2023-07-31T11:46:10;28.34;45.23
70051;SHT30;57391;51.306;22.680;2023-07-31T11:48:37;28.38;45.36
70051;SHT30;57391;51.306;22.680;2023-07-31T11:51:09;28.41;45.25
70051;SHT30;57391;51.306;22.680;2023-07-31T11:56:24;28.23;44.95
70051;SHT30;57391;51.306;22.680;2023-07-31T11:58:59;28.06;45.39
70051;SHT30;57391;51.306;22.680;2023-07-31T12:03:39;27.98;46.24
70051;SHT30;57391;51.306;22.680;2023-07-31T12:06:12;28.01;46.13
70051;SHT30;57391;51.306;22.680;2023-07-31T12:08:39;28.04;46.16
70051;SHT30;57391;51.306;22.680;2023-07-31T12:11:07;28.09;46.21
70051;SHT30;57391;51.306;22.680;2023-07-31T12:13:43;28.09;45.86
70051;SHT30;57391;51.306;22.680;2023-07-31T12:16:10;28.10;45.81
70051;SHT30;57391;51.306;22.680;2023-07-31T12:18:49;28.05;45.56
70051;SHT30;57391;51.306;22.680;2023-07-31T12:21:17;27.96;45.70
70051;SHT30;57391;51.306;22.680;2023-07-31T12:23:51;27.89;46.11
70051;SHT30;57391;51.306;22.680;2023-07-31T12:26:20;27.85;46.42
70051;SHT30;57391;51.306;22.680;2023-07-31T12:29:15;27.77;45.85
70051;SHT30;57391;51.306;22.680;2023-07-31T12:31:46;27.63;45.93
70051;SHT30;57391;51.306;22.680;2023-07-31T12:34:45;27.51;46.55
70051;SHT30;57391;51.306;22.680;2023-07-31T12:37:21;27.44;47.03
70051;SHT30;57391;51.306;22.680;2023-07-31T12:39:52;27.37;47.01
70051;SHT30;57391;51.306;22.680;2023-07-31T12:45:44;27.30;47.83
70051;SHT30;57391;51.306;22.680;2023-07-31T12:48:17;27.29;48.34
70051;SHT30;57391;51.306;22.680;2023-07-31T12:50:54;27.34;48.51
70051;SHT30;57391;51.306;22.680;2023-07-31T12:53:21;27.41;48.25
70051;SHT30;57391;51.306;22.680;2023-07-31T12:55:48;27.51;48.55
70051;SHT30;57391;51.306;22.680;2023-07-31T12:58:27;27.56;47.95
70051;SHT30;57391;51.306;22.680;2023-07-31T13:00:55;27.52;47.38
70051;SHT30;57391;51.306;22.680;2023-07-31T13:03:22;27.49;46.61
70051;SHT30;57391;51.306;22.680;2023-07-31T13:05:49;27.36;46.41
70051;SHT30;57391;51.306;22.680;2023-07-31T13:08:16;27.23;46.69
70051;SHT30;57391;51.306;22.680;2023-07-31T13:10:44;27.18;47.26
70051;SHT30;57391;51.306;22.680;2023-07-31T13:13:14;27.12;47.31
70051;SHT30;57391;51.306;22.680;2023-07-31T13:15:44;27.03;47.08
70051;SHT30;57391;51.306;22.680;2023-07-31T13:18:11;26.99;47.49
70051;SHT30;57391;51.306;22.680;2023-07-31T13:20:38;26.96;47.39
70051;SHT30;57391;51.306;22.680;2023-07-31T13:23:05;26.87;47.08
70051;SHT30;57391;51.306;22.680;2023-07-31T13:25:37;26.81;47.27
70051;SHT30;57391;51.306;22.680;2023-07-31T13:28:05;26.78;47.60
70051;SHT30;57391;51.306;22.680;2023-07-31T13:30:35;26.75;47.86
70051;SHT30;57391;51.306;22.680;2023-07-31T13:33:06;26.79;48.00
70051;SHT30;57391;51.306;22.680;2023-07-31T13:35:34;26.77;47.86
70051;SHT30;57391;51.306;22.680;2023-07-31T13:38:31;26.70;47.92
70051;SHT30;57391;51.306;22.680;2023-07-31T13:41:01;26.63;48.49
70051;SHT30;57391;51.306;22.680;2023-07-31T13:43:28;26.59;48.66
70051;SHT30;57391;51.306;22.680;2023-07-31T13:45:55;26.64;49.50
70051;SHT30;57391;51.306;22.680;2023-07-31T13:48:22;26.69;49.77
70051;SHT30;57391;51.306;22.680;2023-07-31T13:50:49;26.74;49.29
70051;SHT30;57391;51.306;22.680;2023-07-31T13:53:16;26.79;49.19
70051;SHT30;57391;51.306;22.680;2023-07-31T13:55:43;26.81;48.31
70051;SHT30;57391;51.306;22.680;2023-07-31T13:58:12;26.79;47.89
70051;SHT30;57391;51.306;22.680;2023-07-31T14:00:39;26.77;47.59
70051;SHT30;57391;51.306;22.680;2023-07-31T14:03:09;26.81;47.11
70051;SHT30;57391;51.306;22.680;2023-07-31T14:05:37;26.84;47.09
70051;SHT30;57391;51.306;22.680;2023-07-31T14:08:04;26.88;46.23
70051;SHT30;57391;51.306;22.680;2023-07-31T14:10:31;26.87;46.66
70051;SHT30;57391;51.306;22.680;2023-07-31T14:13:01;26.82;46.44
70051;SHT30;57391;51.306;22.680;2023-07-31T14:17:27;26.69;46.15
70051;SHT30;57391;51.306;22.680;2023-07-31T14:19:55;26.62;46.51
70051;SHT30;57391;51.306;22.680;2023-07-31T14:22:31;26.60;46.81
70051;SHT30;57391;51.306;22.680;2023-07-31T14:25:00;26.63;46.65
70051;SHT30;57391;51.306;22.680;2023-07-31T14:27:27;26.63;46.03
70051;SHT30;57391;51.306;22.680;2023-07-31T14:29:54;26.60;45.82
70051;SHT30;57391;51.306;22.680;2023-07-31T14:32:22;26.56;45.52
70051;SHT30;57391;51.306;22.680;2023-07-31T14:34:52;26.49;45.24
70051;SHT30;57391;51.306;22.680;2023-07-31T14:37:18;26.42;44.96
70051;SHT30;57391;51.306;22.680;2023-07-31T14:39:45;26.34;44.69
70051;SHT30;57391;51.306;22.680;2023-07-31T14:42:12;26.27;44.88
70051;SHT30;57391;51.306;22.680;2023-07-31T14:44:39;26.24;44.82
70051;SHT30;57391;51.306;22.680;2023-07-31T14:47:06;26.19;44.75
70051;SHT30;57391;51.306;22.680;2023-07-31T14:49:33;26.14;44.44
70051;SHT30;57391;51.306;22.680;2023-07-31T14:52:00;26.08;44.67
70051;SHT30;57391;51.306;22.680;2023-07-31T14:54:27;26.03;44.77
70051;SHT30;57391;51.306;22.680;2023-07-31T14:56:54;26.02;44.81
70051;SHT30;57391;51.306;22.680;2023-07-31T14:59:21;26.01;45.06
70051;SHT30;57391;51.306;22.680;2023-07-31T15:01:47;26.01;45.08
70051;SHT30;57391;51.306;22.680;2023-07-31T15:04:15;26.03;45.12
70051;SHT30;57391;51.306;22.680;2023-07-31T15:06:41;26.08;44.95
70051;SHT30;57391;51.306;22.680;2023-07-31T15:09:08;26.13;44.51
70051;SHT30;57391;51.306;22.680;2023-07-31T15:11:35;26.15;44.44
70051;SHT30;57391;51.306;22.680;2023-07-31T15:14:02;26.18;44.30
70051;SHT30;57391;51.306;22.680;2023-07-31T15:16:29;26.18;43.97
70051;SHT30;57391;51.306;22.680;2023-07-31T15:18:57;26.17;44.03
70051;SHT30;57391;51.306;22.680;2023-07-31T15:21:24;26.16;44.09
70051;SHT30;57391;51.306;22.680;2023-07-31T15:23:51;26.16;44.32
70051;SHT30;57391;51.306;22.680;2023-07-31T15:34:10;26.12;44.16
70051;SHT30;57391;51.306;22.680;2023-07-31T15:36:39;26.16;43.59
70051;SHT30;57391;51.306;22.680;2023-07-31T15:39:07;26.18;43.37
70051;SHT30;57391;51.306;22.680;2023-07-31T15:41:40;26.23;43.58
70051;SHT30;57391;51.306;22.680;2023-07-31T15:44:08;26.27;43.51
70051;SHT30;57391;51.306;22.680;2023-07-31T15:46:35;26.30;44.24
70051;SHT30;57391;51.306;22.680;2023-07-31T15:49:02;26.31;44.06
70051;SHT30;57391;51.306;22.680;2023-07-31T15:51:29;26.28;43.52
70051;SHT30;57391;51.306;22.680;2023-07-31T15:53:56;26.22;43.52
70051;SHT30;57391;51.306;22.680;2023-07-31T15:56:23;26.17;43.68
70051;SHT30;57391;51.306;22.680;2023-07-31T15:58:50;26.13;43.25
70051;SHT30;57391;51.306;22.680;2023-07-31T16:01:17;26.11;42.87
70051;SHT30;57391;51.306;22.680;2023-07-31T16:03:44;26.07;43.07
70051;SHT30;57391;51.306;22.680;2023-07-31T16:06:11;26.04;43.73
70051;SHT30;57391;51.306;22.680;2023-07-31T16:08:38;26.01;43.43
70051;SHT30;57391;51.306;22.680;2023-07-31T16:11:08;25.98;43.24
70051;SHT30;57391;51.306;22.680;2023-07-31T16:13:35;25.97;43.50
70051;SHT30;57391;51.306;22.680;2023-07-31T16:16:02;25.93;43.52
70051;SHT30;57391;51.306;22.680;2023-07-31T16:18:30;25.92;43.71
70051;SHT30;57391;51.306;22.680;2023-07-31T16:20:57;25.91;43.61
70051;SHT30;57391;51.306;22.680;2023-07-31T16:23:25;25.86;43.63
70051;SHT30;57391;51.306;22.680;2023-07-31T16:25:52;25.82;43.57
70051;SHT30;57391;51.306;22.680;2023-07-31T16:28:19;25.76;43.74
70051;SHT30;57391;51.306;22.680;2023-07-31T16:30:46;25.71;43.87
70051;SHT30;57391;51.306;22.680;2023-07-31T16:33:13;25.66;44.20
70051;SHT30;57391;51.306;22.680;2023-07-31T16:35:41;25.60;44.34
70051;SHT30;57391;51.306;22.680;2023-07-31T16:38:08;25.53;44.66
70051;SHT30;57391;51.306;22.680;2023-07-31T16:40:35;25.43;44.53
70051;SHT30;57391;51.306;22.680;2023-07-31T16:43:02;25.36;44.59